sensor_id;sensor_type;location;lat;lon;timestamp;pressure;altitude;pressure_sealevel;temperature;humidity
19108;BME280;9686;48.832;9.126;2024-01-11T00:02:07;99170.63;;;-2.02;100.00
19108;BME280;9686;48.832;9.126;2024-01-11T00:04:32;99159.16;;;-1.94;100.00
19108;BME280;9686;48.832;9.126;2024-01-11T00:06:57;99167.34;;;-2.00;100.00
19108;BME280;9686;48.832;9.126;2024-01-11T00:09:23;99174.09;;;-2.15;100.00
19108;BME280;9686;48.832;9.126;2024-01-11T00:11:48;99167.88;;;-2.05;100.00
19108;BME280;9686;48.832;9.126;2024-01-11T00:14:14;99175.78;;;-2.15;100.00
19108;BME280;9686;48.832;9.126;2024-01-11T00:16:39;99170.31;;;-2.22;100.00
19108;BME280;9686;48.832;9.126;2024-01-11T00:19:04;99168.09;;;-2.30;100.00
19108;BME280;9686;48.832;9.126;2024-01-11T00:21:30;99170.75;;;-2.29;100.00
19108;BME280;9686;48.832;9.126;2024-01-11T00:23:55;99172.44;;;-2.14;100.00
19108;BME280;9686;48.832;9.126;2024-01-11T00:26:20;99175.91;;;-2.42;100.00
19108;BME280;9686;48.832;9.126;2024-01-11T00:28:46;99180.47;;;-2.36;100.00
19108;BME280;9686;48.832;9.126;2024-01-11T00:31:11;99176.16;;;-2.37;100.00
19108;BME280;9686;48.832;9.126;2024-01-11T00:33:36;99173.47;;;-2.26;100.00
19108;BME280;9686;48.832;9.126;2024-01-11T00:36:02;99181.69;;;-2.44;100.00
19108;BME280;9686;48.832;9.126;2024-01-11T00:38:27;99181.69;;;-2.44;100.00
19108;BME280;9686;48.832;9.126;2024-01-11T00:40:52;99186.28;;;-2.39;100.00
19108;BME280;9686;48.832;9.126;2024-01-11T00:43:18;99179.31;;;-2.41;100.00
19108;BME280;9686;48.832;9.126;2024-01-11T00:45:45;99178.81;;;-2.36;100.00
19108;BME280;9686;48.832;9.126;2024-01-11T00:48:11;99182.22;;;-2.50;100.00
19108;BME280;9686;48.832;9.126;2024-01-11T00:50:36;99189.69;;;-2.53;100.00
19108;BME280;9686;48.832;9.126;2024-01-11T00:53:02;99182.84;;;-2.39;100.00
19108;BME280;9686;48.832;9.126;2024-01-11T00:55:28;99181.19;;;-2.39;100.00
19108;BME280;9686;48.832;9.126;2024-01-11T00:57:53;99180.69;;;-2.33;100.00
19108;BME280;9686;48.832;9.126;2024-01-11T01:00:19;99194.28;;;-2.47;100.00
19108;BME280;9686;48.832;9.126;2024-01-11T01:02:44;99186.50;;;-2.21;100.00
19108;BME280;9686;48.832;9.126;2024-01-11T01:05:09;99194.53;;;-2.30;100.00
19108;BME280;9686;48.832;9.126;2024-01-11T01:07:35;99186.69;;;-2.33;100.00
19108;BME280;9686;48.832;9.126;2024-01-11T01:10:00;99187.56;;;-2.32;100.00
19108;BME280;9686;48.832;9.126;2024-01-11T01:12:26;99183.97;;;-2.21;100.00
19108;BME280;9686;48.832;9.126;2024-01-11T01:14:52;99182.25;;;-2.35;100.00
19108;BME280;9686;48.832;9.126;2024-01-11T01:17:17;99186.25;;;-2.11;100.00
19108;BME280;9686;48.832;9.126;2024-01-11T01:19:43;99189.84;;;-2.22;100.00
19108;BME280;9686;48.832;9.126;2024-01-11T01:22:09;99182.19;;;-2.22;100.00
19108;BME280;9686;48.832;9.126;2024-01-11T01:24:35;99180.09;;;-2.29;100.00
19108;BME280;9686;48.832;9.126;2024-01-11T01:27:00;99183.81;;;-2.37;100.00
19108;BME280;9686;48.832;9.126;2024-01-11T01:29:26;99191.53;;;-2.51;100.00
19108;BME280;9686;48.832;9.126;2024-01-11T01:31:51;99185.72;;;-2.20;100.00
19108;BME280;9686;48.832;9.126;2024-01-11T01:34:17;99192.66;;;-2.32;100.00
19108;BME280;9686;48.832;9.126;2024-01-11T01:36:42;99184.53;;;-2.40;100.00
19108;BME280;9686;48.832;9.126;2024-01-11T01:39:07;99187.03;;;-2.27;100.00
19108;BME280;9686;48.832;9.126;2024-01-11T01:41:32;99187.97;;;-2.39;100.00
19108;BME280;9686;48.832;9.126;2024-01-11T01:43:58;99200.63;;;-2.41;100.00
19108;BME280;9686;48.832;9.126;2024-01-11T01:46:24;99206.97;;;-2.34;100.00
19108;BME280;9686;48.832;9.126;2024-01-11T01:48:52;99221.31;;;-2.36;100.00
19108;BME280;9686;48.832;9.126;2024-01-11T01:51:18;99221.75;;;-2.43;100.00
19108;BME280;9686;48.832;9.126;2024-01-11T01:53:44;99224.63;;;-2.52;100.00
19108;BME280;9686;48.832;9.126;2024-01-11T01:56:10;99228.34;;;-2.47;100.00
19108;BME280;9686;48.832;9.126;2024-01-11T01:58:36;99229.31;;;-2.45;100.00
19108;BME280;9686;48.832;9.126;2024-01-11T02:01:02;99227.38;;;-2.49;100.00
19108;BME280;9686;48.832;9.126;2024-01-11T02:03:28;99224.91;;;-2.47;100.00
19108;BME280;9686;48.832;9.126;2024-01-11T02:05:55;99216.03;;;-2.39;100.00
19108;BME280;9686;48.832;9.126;2024-01-11T02:08:22;99215.50;;;-2.62;100.00
19108;BME280;9686;48.832;9.126;2024-01-11T02:10:48;99215.25;;;-2.38;100.00
19108;BME280;9686;48.832;9.126;2024-01-11T02:13:14;99210.91;;;-2.67;100.00
19108;BME280;9686;48.832;9.126;2024-01-11T02:15:40;99217.19;;;-2.62;100.00
19108;BME280;9686;48.832;9.126;2024-01-11T02:18:05;99223.31;;;-2.73;100.00
19108;BME280;9686;48.832;9.126;2024-01-11T02:20:31;99223.91;;;-2.77;100.00
19108;BME280;9686;48.832;9.126;2024-01-11T02:23:01;99230.16;;;-2.72;100.00
19108;BME280;9686;48.832;9.126;2024-01-11T02:25:28;99226.50;;;-2.63;100.00
19108;BME280;9686;48.832;9.126;2024-01-11T02:27:53;99227.16;;;-2.80;100.00
19108;BME280;9686;48.832;9.126;2024-01-11T02:30:19;99220.88;;;-2.85;100.00
19108;BME280;9686;48.832;9.126;2024-01-11T02:32:45;99222.13;;;-2.78;100.00
19108;BME280;9686;48.832;9.126;2024-01-11T02:35:12;99225.56;;;-2.78;100.00
19108;BME280;9686;48.832;9.126;2024-01-11T02:37:38;99224.38;;;-2.70;100.00
19108;BME280;9686;48.832;9.126;2024-01-11T02:40:06;99230.63;;;-2.52;100.00
19108;BME280;9686;48.832;9.126;2024-01-11T02:42:32;99235.75;;;-2.65;100.00
19108;BME280;9686;48.832;9.126;2024-01-11T02:44:57;99229.72;;;-2.80;100.00
19108;BME280;9686;48.832;9.126;2024-01-11T02:47:23;99232.41;;;-2.64;100.00
19108;BME280;9686;48.832;9.126;2024-01-11T02:49:48;99227.59;;;-2.59;100.00
19108;BME280;9686;48.832;9.126;2024-01-11T02:52:13;99223.31;;;-2.73;100.00
19108;BME280;9686;48.832;9.126;2024-01-11T02:54:39;99230.06;;;-2.74;100.00
19108;BME280;9686;48.832;9.126;2024-01-11T02:57:04;99210.81;;;-2.56;100.00
19108;BME280;9686;48.832;9.126;2024-01-11T02:59:29;99212.38;;;-2.58;100.00
19108;BME280;9686;48.832;9.126;2024-01-11T03:01:54;99203.41;;;-2.79;100.00
19108;BME280;9686;48.832;9.126;2024-01-11T03:04:20;99208.09;;;-2.72;100.00
19108;BME280;9686;48.832;9.126;2024-01-11T03:06:46;99206.94;;;-2.90;100.00
19108;BME280;9686;48.832;9.126;2024-01-11T03:09:11;99205.78;;;-2.82;100.00
19108;BME280;9686;48.832;9.126;2024-01-11T03:11:37;99211.16;;;-2.77;100.00
19108;BME280;9686;48.832;9.126;2024-01-11T03:14:03;99212.31;;;-2.72;100.00
19108;BME280;9686;48.832;9.126;2024-01-11T03:16:28;99207.72;;;-2.78;100.00
19108;BME280;9686;48.832;9.126;2024-01-11T03:18:53;99200.56;;;-2.84;100.00
19108;BME280;9686;48.832;9.126;2024-01-11T03:21:19;99198.31;;;-2.92;100.00
19108;BME280;9686;48.832;9.126;2024-01-11T03:23:44;99206.75;;;-2.93;100.00
19108;BME280;9686;48.832;9.126;2024-01-11T03:26:16;99202.53;;;-2.93;100.00
19108;BME280;9686;48.832;9.126;2024-01-11T03:28:42;99199.00;;;-2.95;100.00
19108;BME280;9686;48.832;9.126;2024-01-11T03:31:10;99202.16;;;-2.99;100.00
19108;BME280;9686;48.832;9.126;2024-01-11T03:33:36;99203.41;;;-2.92;100.00
19108;BME280;9686;48.832;9.126;2024-01-11T03:36:11;99205.69;;;-2.97;100.00
19108;BME280;9686;48.832;9.126;2024-01-11T03:38:37;99194.00;;;-2.80;100.00
19108;BME280;9686;48.832;9.126;2024-01-11T03:41:08;99192.91;;;-2.84;100.00
19108;BME280;9686;48.832;9.126;2024-01-11T03:43:34;99196.16;;;-2.99;100.00
19108;BME280;9686;48.832;9.126;2024-01-11T03:45:59;99205.69;;;-2.97;100.00
19108;BME280;9686;48.832;9.126;2024-01-11T03:48:24;99202.19;;;-3.12;100.00
19108;BME280;9686;48.832;9.126;2024-01-11T03:50:49;99201.41;;;-3.11;100.00
19108;BME280;9686;48.832;9.126;2024-01-11T03:53:15;99198.84;;;-3.11;100.00
19108;BME280;9686;48.832;9.126;2024-01-11T03:55:40;99203.53;;;-3.04;100.00
19108;BME280;9686;48.832;9.126;2024-01-11T03:58:06;99199.41;;;-3.15;100.00
19108;BME280;9686;48.832;9.126;2024-01-11T04:00:31;99195.59;;;-3.22;100.00
19108;BME280;9686;48.832;9.126;2024-01-11T04:02:58;99193.75;;;-3.24;100.00
19108;BME280;9686;48.832;9.126;2024-01-11T04:05:23;99189.59;;;-2.96;100.00
19108;BME280;9686;48.832;9.126;2024-01-11T04:07:49;99182.22;;;-2.78;100.00
19108;BME280;9686;48.832;9.126;2024-01-11T04:10:17;99195.56;;;-2.82;100.00
19108;BME280;9686;48.832;9.126;2024-01-11T04:12:42;99191.53;;;-2.78;100.00
19108;BME280;9686;48.832;9.126;2024-01-11T04:15:08;99187.50;;;-2.88;100.00
19108;BME280;9686;48.832;9.126;2024-01-11T04:17:33;99184.72;;;-3.06;100.00
19108;BME280;9686;48.832;9.126;2024-01-11T04:19:59;99190.97;;;-3.01;100.00
19108;BME280;9686;48.832;9.126;2024-01-11T04:22:24;99194.53;;;-3.12;100.00
19108;BME280;9686;48.832;9.126;2024-01-11T04:24:50;99191.28;;;-3.09;100.00
19108;BME280;9686;48.832;9.126;2024-01-11T04:27:15;99192.66;;;-3.01;100.00
19108;BME280;9686;48.832;9.126;2024-01-11T04:29:40;99192.75;;;-3.00;100.00
19108;BME280;9686;48.832;9.126;2024-01-11T04:32:05;99189.00;;;-2.92;100.00
19108;BME280;9686;48.832;9.126;2024-01-11T04:34:31;99183.56;;;-3.11;100.00
19108;BME280;9686;48.832;9.126;2024-01-11T04:36:56;99188.25;;;-3.04;100.00
19108;BME280;9686;48.832;9.126;2024-01-11T04:39:22;99185.22;;;-3.12;100.00
19108;BME280;9686;48.832;9.126;2024-01-11T04:41:47;99187.44;;;-3.16;100.00
19108;BME280;9686;48.832;9.126;2024-01-11T04:44:13;99190.13;;;-3.28;100.00
19108;BME280;9686;48.832;9.126;2024-01-11T04:46:38;99182.06;;;-3.21;100.00
19108;BME280;9686;48.832;9.126;2024-01-11T04:49:03;99181.41;;;-3.31;100.00
19108;BME280;9686;48.832;9.126;2024-01-11T04:51:29;99182.88;;;-3.35;100.00
19108;BME280;9686;48.832;9.126;2024-01-11T04:53:54;99186.31;;;-3.34;100.00
19108;BME280;9686;48.832;9.126;2024-01-11T04:56:19;99180.63;;;-3.30;100.00
19108;BME280;9686;48.832;9.126;2024-01-11T04:58:45;99176.69;;;-3.25;100.00
19108;BME280;9686;48.832;9.126;2024-01-11T05:01:15;99180.44;;;-3.33;100.00
19108;BME280;9686;48.832;9.126;2024-01-11T05:03:41;99185.41;;;-3.22;100.00
19108;BME280;9686;48.832;9.126;2024-01-11T05:06:06;99188.75;;;-3.09;100.00
19108;BME280;9686;48.832;9.126;2024-01-11T05:08:32;99185.41;;;-3.22;100.00
19108;BME280;9686;48.832;9.126;2024-01-11T05:10:57;99189.75;;;-3.34;100.00
19108;BME280;9686;48.832;9.126;2024-01-11T05:13:22;99192.28;;;-3.47;100.00
19108;BME280;9686;48.832;9.126;2024-01-11T05:15:48;99201.28;;;-3.52;100.00
19108;BME280;9686;48.832;9.126;2024-01-11T05:18:13;99210.00;;;-3.49;100.00
19108;BME280;9686;48.832;9.126;2024-01-11T05:20:39;99210.88;;;-3.48;100.00
19108;BME280;9686;48.832;9.126;2024-01-11T05:23:04;99216.97;;;-3.46;100.00
19108;BME280;9686;48.832;9.126;2024-01-11T05:25:30;99211.69;;;-3.49;100.00
19108;BME280;9686;48.832;9.126;2024-01-11T05:28:02;99214.72;;;-3.55;100.00
19108;BME280;9686;48.832;9.126;2024-01-11T05:30:28;99210.22;;;-3.59;100.00
19108;BME280;9686;48.832;9.126;2024-01-11T05:32:54;99220.25;;;-3.74;100.00
19108;BME280;9686;48.832;9.126;2024-01-11T05:35:20;99223.78;;;-3.72;100.00
19108;BME280;9686;48.832;9.126;2024-01-11T05:37:45;99224.13;;;-3.54;100.00
19108;BME280;9686;48.832;9.126;2024-01-11T05:40:10;99231.97;;;-3.64;100.00
19108;BME280;9686;48.832;9.126;2024-01-11T05:42:36;99238.28;;;-3.70;100.00
19108;BME280;9686;48.832;9.126;2024-01-11T05:45:06;99233.19;;;-3.70;100.00
19108;BME280;9686;48.832;9.126;2024-01-11T05:47:31;99234.06;;;-3.70;100.00
19108;BME280;9686;48.832;9.126;2024-01-11T05:49:56;99240.84;;;-3.70;100.00
19108;BME280;9686;48.832;9.126;2024-01-11T05:52:22;99249.06;;;-3.75;100.00
19108;BME280;9686;48.832;9.126;2024-01-11T05:54:47;99242.78;;;-3.80;100.00
19108;BME280;9686;48.832;9.126;2024-01-11T05:57:12;99245.34;;;-3.80;100.00
19108;BME280;9686;48.832;9.126;2024-01-11T05:59:43;99242.41;;;-3.73;100.00
19108;BME280;9686;48.832;9.126;2024-01-11T06:02:08;99253.63;;;-3.57;100.00
19108;BME280;9686;48.832;9.126;2024-01-11T06:04:33;99260.00;;;-3.51;100.00
19108;BME280;9686;48.832;9.126;2024-01-11T06:06:59;99252.34;;;-3.64;100.00
19108;BME280;9686;48.832;9.126;2024-01-11T06:09:24;99256.41;;;-3.79;100.00
19108;BME280;9686;48.832;9.126;2024-01-11T06:11:50;99254.44;;;-3.83;100.00
19108;BME280;9686;48.832;9.126;2024-01-11T06:14:15;99255.63;;;-3.78;100.00
19108;BME280;9686;48.832;9.126;2024-01-11T06:16:40;99253.75;;;-3.81;100.00
19108;BME280;9686;48.832;9.126;2024-01-11T06:19:05;99256.13;;;-3.70;100.00
19108;BME280;9686;48.832;9.126;2024-01-11T06:21:32;99251.00;;;-3.84;100.00
19108;BME280;9686;48.832;9.126;2024-01-11T06:23:57;99244.16;;;-3.85;100.00
19108;BME280;9686;48.832;9.126;2024-01-11T06:26:22;99247.13;;;-3.65;100.00
19108;BME280;9686;48.832;9.126;2024-01-11T06:28:48;99246.47;;;-3.50;100.00
19108;BME280;9686;48.832;9.126;2024-01-11T06:31:13;99246.75;;;-3.58;100.00
19108;BME280;9686;48.832;9.126;2024-01-11T06:33:39;99248.31;;;-3.60;100.00
19108;BME280;9686;48.832;9.126;2024-01-11T06:36:07;99245.63;;;-3.75;100.00
19108;BME280;9686;48.832;9.126;2024-01-11T06:38:33;99249.53;;;-3.80;100.00
19108;BME280;9686;48.832;9.126;2024-01-11T06:40:58;99250.72;;;-3.75;100.00
19108;BME280;9686;48.832;9.126;2024-01-11T06:43:23;99250.94;;;-3.72;100.00
19108;BME280;9686;48.832;9.126;2024-01-11T06:45:49;99247.28;;;-3.76;100.00
19108;BME280;9686;48.832;9.126;2024-01-11T06:48:14;99255.78;;;-3.63;100.00
19108;BME280;9686;48.832;9.126;2024-01-11T06:50:39;99260.44;;;-3.69;100.00
19108;BME280;9686;48.832;9.126;2024-01-11T06:53:04;99267.88;;;-3.73;100.00
19108;BME280;9686;48.832;9.126;2024-01-11T06:55:30;99260.22;;;-3.73;100.00
19108;BME280;9686;48.832;9.126;2024-01-11T06:57:55;99253.31;;;-3.62;100.00
19108;BME280;9686;48.832;9.126;2024-01-11T07:00:20;99257.63;;;-3.61;100.00
19108;BME280;9686;48.832;9.126;2024-01-11T07:02:46;99267.72;;;-3.62;100.00
19108;BME280;9686;48.832;9.126;2024-01-11T07:05:12;99279.09;;;-3.57;100.00
19108;BME280;9686;48.832;9.126;2024-01-11T07:07:37;99277.22;;;-3.60;100.00
19108;BME280;9686;48.832;9.126;2024-01-11T07:10:03;99284.69;;;-3.50;100.00
19108;BME280;9686;48.832;9.126;2024-01-11T07:12:30;99292.72;;;-3.57;100.00
19108;BME280;9686;48.832;9.126;2024-01-11T07:14:56;99283.13;;;-3.48;100.00
19108;BME280;9686;48.832;9.126;2024-01-11T07:17:21;99279.16;;;-3.31;100.00
19108;BME280;9686;48.832;9.126;2024-01-11T07:19:47;99277.00;;;-3.25;100.00
19108;BME280;9686;48.832;9.126;2024-01-11T07:22:13;99293.47;;;-3.33;100.00
19108;BME280;9686;48.832;9.126;2024-01-11T07:24:38;99286.06;;;-3.55;100.00
19108;BME280;9686;48.832;9.126;2024-01-11T07:27:05;99280.47;;;-3.49;100.00
19108;BME280;9686;48.832;9.126;2024-01-11T07:29:30;99305.56;;;-3.42;100.00
19108;BME280;9686;48.832;9.126;2024-01-11T07:31:55;99298.34;;;-3.36;100.00
19108;BME280;9686;48.832;9.126;2024-01-11T07:34:21;99306.75;;;-3.50;100.00
19108;BME280;9686;48.832;9.126;2024-01-11T07:36:46;99305.66;;;-3.54;100.00
19108;BME280;9686;48.832;9.126;2024-01-11T07:39:12;99298.84;;;-3.28;100.00
19108;BME280;9686;48.832;9.126;2024-01-11T07:41:37;99296.88;;;-3.19;100.00
19108;BME280;9686;48.832;9.126;2024-01-11T07:44:02;99299.63;;;-3.29;100.00
19108;BME280;9686;48.832;9.126;2024-01-11T07:46:28;99297.88;;;-3.30;100.00
19108;BME280;9686;48.832;9.126;2024-01-11T07:48:54;99310.22;;;-3.23;100.00
19108;BME280;9686;48.832;9.126;2024-01-11T07:51:19;99317.69;;;-3.00;100.00
19108;BME280;9686;48.832;9.126;2024-01-11T07:53:45;99315.91;;;-3.14;100.00
19108;BME280;9686;48.832;9.126;2024-01-11T07:56:10;99324.19;;;-3.05;100.00
19108;BME280;9686;48.832;9.126;2024-01-11T07:58:35;99323.00;;;-3.10;100.00
19108;BME280;9686;48.832;9.126;2024-01-11T08:01:03;99339.09;;;-3.11;100.00
19108;BME280;9686;48.832;9.126;2024-01-11T08:03:29;99343.50;;;-3.08;100.00
19108;BME280;9686;48.832;9.126;2024-01-11T08:05:55;99355.28;;;-2.97;100.00
19108;BME280;9686;48.832;9.126;2024-01-11T08:08:20;99339.50;;;-2.78;100.00
19108;BME280;9686;48.832;9.126;2024-01-11T08:10:47;99344.13;;;-2.60;100.00
19108;BME280;9686;48.832;9.126;2024-01-11T08:13:12;99349.41;;;-2.70;100.00
19108;BME280;9686;48.832;9.126;2024-01-11T08:15:38;99358.22;;;-2.65;100.00
19108;BME280;9686;48.832;9.126;2024-01-11T08:18:04;99361.38;;;-2.69;100.00
19108;BME280;9686;48.832;9.126;2024-01-11T08:20:30;99360.97;;;-2.49;100.00
19108;BME280;9686;48.832;9.126;2024-01-11T08:22:55;99372.75;;;-2.51;100.00
19108;BME280;9686;48.832;9.126;2024-01-11T08:25:21;99362.75;;;-2.47;100.00
19108;BME280;9686;48.832;9.126;2024-01-11T08:27:48;99363.63;;;-2.34;100.00
19108;BME280;9686;48.832;9.126;2024-01-11T08:30:13;99366.94;;;-2.22;100.00
19108;BME280;9686;48.832;9.126;2024-01-11T08:32:39;99368.56;;;-2.09;100.00
19108;BME280;9686;48.832;9.126;2024-01-11T08:35:08;99368.88;;;-2.04;100.00
19108;BME280;9686;48.832;9.126;2024-01-11T08:37:35;99371.72;;;-2.00;100.00
19108;BME280;9686;48.832;9.126;2024-01-11T08:40:01;99371.53;;;-2.03;100.00
19108;BME280;9686;48.832;9.126;2024-01-11T08:42:26;99368.72;;;-1.93;100.00
19108;BME280;9686;48.832;9.126;2024-01-11T08:44:51;99368.72;;;-1.79;100.00
19108;BME280;9686;48.832;9.126;2024-01-11T08:47:17;99371.03;;;-1.69;100.00
19108;BME280;9686;48.832;9.126;2024-01-11T08:49:43;99361.84;;;-1.80;100.00
19108;BME280;9686;48.832;9.126;2024-01-11T08:52:08;99360.00;;;-1.68;100.00
19108;BME280;9686;48.832;9.126;2024-01-11T08:54:33;99359.97;;;-1.55;100.00
19108;BME280;9686;48.832;9.126;2024-01-11T08:56:59;99364.28;;;-1.54;100.00
19108;BME280;9686;48.832;9.126;2024-01-11T08:59:24;99364.47;;;-1.51;100.00
19108;BME280;9686;48.832;9.126;2024-01-11T09:01:51;99361.47;;;-1.44;100.00
19108;BME280;9686;48.832;9.126;2024-01-11T09:04:16;99357.06;;;-1.32;100.00
19108;BME280;9686;48.832;9.126;2024-01-11T09:06:43;99356.97;;;-1.33;100.00
19108;BME280;9686;48.832;9.126;2024-01-11T09:09:09;99362.94;;;-1.19;100.00
19108;BME280;9686;48.832;9.126;2024-01-11T09:11:35;99372.63;;;-1.14;100.00
19108;BME280;9686;48.832;9.126;2024-01-11T09:14:01;99371.31;;;-1.07;100.00
19108;BME280;9686;48.832;9.126;2024-01-11T09:16:28;99370.59;;;-1.05;100.00
19108;BME280;9686;48.832;9.126;2024-01-11T09:18:53;99359.22;;;-0.95;100.00
19108;BME280;9686;48.832;9.126;2024-01-11T09:21:18;99379.69;;;-0.95;100.00
19108;BME280;9686;48.832;9.126;2024-01-11T09:23:44;99384.28;;;-0.89;100.00
19108;BME280;9686;48.832;9.126;2024-01-11T09:26:09;99383.66;;;-0.85;100.00
19108;BME280;9686;48.832;9.126;2024-01-11T09:28:35;99385.97;;;-0.75;100.00
19108;BME280;9686;48.832;9.126;2024-01-11T09:31:00;99382.25;;;-0.80;100.00
19108;BME280;9686;48.832;9.126;2024-01-11T09:33:26;99379.16;;;-1.04;100.00
19108;BME280;9686;48.832;9.126;2024-01-11T09:35:52;99382.50;;;-1.05;100.00
19108;BME280;9686;48.832;9.126;2024-01-11T09:38:18;99377.03;;;-0.82;100.00
19108;BME280;9686;48.832;9.126;2024-01-11T09:40:43;99379.41;;;-0.55;100.00
19108;BME280;9686;48.832;9.126;2024-01-11T09:43:09;99388.75;;;-0.56;100.00
19108;BME280;9686;48.832;9.126;2024-01-11T09:45:36;99390.91;;;-0.64;100.00
19108;BME280;9686;48.832;9.126;2024-01-11T09:48:04;99381.44;;;-0.50;100.00
19108;BME280;9686;48.832;9.126;2024-01-11T09:50:30;99382.66;;;-0.43;100.00
19108;BME280;9686;48.832;9.126;2024-01-11T09:52:56;99378.03;;;-0.34;100.00
19108;BME280;9686;48.832;9.126;2024-01-11T09:55:21;99387.22;;;-0.23;100.00
19108;BME280;9686;48.832;9.126;2024-01-11T09:57:47;99379.53;;;-0.23;100.00
19108;BME280;9686;48.832;9.126;2024-01-11T10:00:16;99377.06;;;-0.05;100.00
19108;BME280;9686;48.832;9.126;2024-01-11T10:02:47;99383.34;;;0.00;100.00
19108;BME280;9686;48.832;9.126;2024-01-11T10:05:13;99375.34;;;0.10;100.00
19108;BME280;9686;48.832;9.126;2024-01-11T10:07:41;99379.91;;;0.16;100.00
19108;BME280;9686;48.832;9.126;2024-01-11T10:10:07;99369.34;;;0.26;100.00
19108;BME280;9686;48.832;9.126;2024-01-11T10:12:35;99359.69;;;0.53;100.00
19108;BME280;9686;48.832;9.126;2024-01-11T10:15:08;99348.66;;;0.72;100.00
19108;BME280;9686;48.832;9.126;2024-01-11T10:17:35;99346.81;;;0.69;100.00
19108;BME280;9686;48.832;9.126;2024-01-11T10:20:01;99339.19;;;0.87;100.00
19108;BME280;9686;48.832;9.126;2024-01-11T10:22:27;99330.97;;;0.94;100.00
19108;BME280;9686;48.832;9.126;2024-01-11T10:25:08;99328.06;;;1.04;100.00
19108;BME280;9686;48.832;9.126;2024-01-11T10:27:34;99327.09;;;1.02;100.00
19108;BME280;9686;48.832;9.126;2024-01-11T10:29:59;99325.97;;;0.97;100.00
19108;BME280;9686;48.832;9.126;2024-01-11T10:32:28;99325.50;;;1.04;100.00
19108;BME280;9686;48.832;9.126;2024-01-11T10:34:53;99316.81;;;1.02;100.00
19108;BME280;9686;48.832;9.126;2024-01-11T10:37:20;99328.72;;;1.18;100.00
19108;BME280;9686;48.832;9.126;2024-01-11T10:39:46;99329.66;;;1.02;100.00
19108;BME280;9686;48.832;9.126;2024-01-11T10:42:17;99335.34;;;1.13;100.00
19108;BME280;9686;48.832;9.126;2024-01-11T10:44:46;99336.81;;;1.08;100.00
19108;BME280;9686;48.832;9.126;2024-01-11T10:47:14;99344.66;;;1.11;100.00
19108;BME280;9686;48.832;9.126;2024-01-11T10:49:41;99345.91;;;1.19;100.00
19108;BME280;9686;48.832;9.126;2024-01-11T10:52:12;99344.44;;;1.24;100.00
19108;BME280;9686;48.832;9.126;2024-01-11T10:54:38;99342.38;;;1.52;100.00
19108;BME280;9686;48.832;9.126;2024-01-11T10:57:05;99343.34;;;1.72;100.00
19108;BME280;9686;48.832;9.126;2024-01-11T10:59:34;99342.84;;;1.62;99.75
19108;BME280;9686;48.832;9.126;2024-01-11T11:02:05;99343.34;;;1.72;100.00
19108;BME280;9686;48.832;9.126;2024-01-11T11:04:38;99340.19;;;1.60;100.00
19108;BME280;9686;48.832;9.126;2024-01-11T11:07:04;99342.31;;;1.51;100.00
19108;BME280;9686;48.832;9.126;2024-01-11T11:09:34;99336.97;;;1.64;100.00
19108;BME280;9686;48.832;9.126;2024-01-11T11:12:00;99345.31;;;1.78;100.00
19108;BME280;9686;48.832;9.126;2024-01-11T11:14:26;99337.91;;;1.84;100.00
19108;BME280;9686;48.832;9.126;2024-01-11T11:16:53;99336.03;;;1.99;100.00
19108;BME280;9686;48.832;9.126;2024-01-11T11:19:22;99332.91;;;1.69;98.12
19108;BME280;9686;48.832;9.126;2024-01-11T11:21:48;99332.91;;;1.69;97.74
19108;BME280;9686;48.832;9.126;2024-01-11T11:24:14;99332.84;;;1.85;99.32
19108;BME280;9686;48.832;9.126;2024-01-11T11:26:39;99329.13;;;1.98;97.43
19108;BME280;9686;48.832;9.126;2024-01-11T11:29:05;99316.03;;;2.11;99.31
19108;BME280;9686;48.832;9.126;2024-01-11T11:31:43;99317.94;;;1.98;96.31
19108;BME280;9686;48.832;9.126;2024-01-11T11:34:11;99323.44;;;2.05;98.38
19108;BME280;9686;48.832;9.126;2024-01-11T11:36:40;99328.34;;;2.38;97.07
19108;BME280;9686;48.832;9.126;2024-01-11T11:39:10;99327.44;;;2.57;97.32
19108;BME280;9686;48.832;9.126;2024-01-11T11:41:37;99315.09;;;2.88;94.16
19108;BME280;9686;48.832;9.126;2024-01-11T11:44:04;99308.97;;;3.07;92.71
19108;BME280;9686;48.832;9.126;2024-01-11T11:46:31;99312.78;;;2.75;88.65
19108;BME280;9686;48.832;9.126;2024-01-11T11:48:57;99305.94;;;3.16;87.15
19108;BME280;9686;48.832;9.126;2024-01-11T11:51:23;99302.22;;;3.52;87.78
19108;BME280;9686;48.832;9.126;2024-01-11T11:53:50;99299.91;;;4.03;87.81
19108;BME280;9686;48.832;9.126;2024-01-11T11:56:20;99283.56;;;4.50;82.03
19108;BME280;9686;48.832;9.126;2024-01-11T11:58:46;99294.00;;;4.79;77.68
19108;BME280;9686;48.832;9.126;2024-01-11T12:01:14;99302.47;;;5.25;69.84
19108;BME280;9686;48.832;9.126;2024-01-11T12:03:44;99288.63;;;5.23;69.17
19108;BME280;9686;48.832;9.126;2024-01-11T12:06:19;99276.31;;;5.43;66.15
19108;BME280;9686;48.832;9.126;2024-01-11T12:08:47;99270.28;;;5.71;66.09
19108;BME280;9686;48.832;9.126;2024-01-11T12:11:14;99257.19;;;5.94;65.94
19108;BME280;9686;48.832;9.126;2024-01-11T12:13:40;99266.78;;;6.26;62.86
19108;BME280;9686;48.832;9.126;2024-01-11T12:16:06;99274.50;;;5.96;62.06
19108;BME280;9686;48.832;9.126;2024-01-11T12:18:31;99268.81;;;5.79;61.84
19108;BME280;9686;48.832;9.126;2024-01-11T12:20:56;99257.44;;;5.46;62.68
19108;BME280;9686;48.832;9.126;2024-01-11T12:23:22;99259.84;;;5.13;63.20
19108;BME280;9686;48.832;9.126;2024-01-11T12:25:47;99258.09;;;4.61;64.77
19108;BME280;9686;48.832;9.126;2024-01-11T12:28:13;99257.41;;;4.41;66.89
19108;BME280;9686;48.832;9.126;2024-01-11T12:30:38;99261.91;;;3.99;70.14
19108;BME280;9686;48.832;9.126;2024-01-11T12:33:04;99258.22;;;3.92;71.05
19108;BME280;9686;48.832;9.126;2024-01-11T12:35:30;99275.53;;;3.95;71.16
19108;BME280;9686;48.832;9.126;2024-01-11T12:37:58;99262.63;;;3.72;73.70
19108;BME280;9686;48.832;9.126;2024-01-11T12:40:24;99261.59;;;3.67;77.28
19108;BME280;9686;48.832;9.126;2024-01-11T12:42:49;99260.34;;;3.58;78.10
19108;BME280;9686;48.832;9.126;2024-01-11T12:45:16;99260.00;;;3.49;77.07
19108;BME280;9686;48.832;9.126;2024-01-11T12:47:42;99254.78;;;3.47;78.67
19108;BME280;9686;48.832;9.126;2024-01-11T12:50:08;99255.53;;;3.45;78.59
19108;BME280;9686;48.832;9.126;2024-01-11T12:52:34;99258.75;;;3.61;78.84
19108;BME280;9686;48.832;9.126;2024-01-11T12:54:59;99246.19;;;3.47;77.10
19108;BME280;9686;48.832;9.126;2024-01-11T12:57:25;99243.63;;;3.26;79.51
19108;BME280;9686;48.832;9.126;2024-01-11T12:59:50;99242.59;;;3.21;81.25